createdAt,value
2019-05-14T00:00:23.888Z,56.30
2019-05-14T00:00:55.091Z,56.30
2019-05-14T00:01:26.293Z,56.30
2019-05-14T00:01:57.481Z,56.30
2019-05-14T00:02:28.683Z,56.30
2019-05-14T00:03:02.117Z,56.30
2019-05-14T00:03:32.813Z,56.30
2019-05-14T00:04:04.334Z,56.30
2019-05-14T00:04:35.506Z,56.30
2019-05-14T00:05:06.686Z,56.40
2019-05-14T00:05:38.126Z,56.30
2019-05-14T00:06:11.358Z,56.30
2019-05-14T00:06:42.222Z,56.30
2019-05-14T00:07:13.395Z,56.30
2019-05-14T00:07:44.561Z,56.10
2019-05-14T00:08:17.552Z,56.00
2019-05-14T00:08:48.827Z,56.00
2019-05-14T00:09:21.530Z,56.00
2019-05-14T00:09:53.028Z,56.00
2019-05-14T00:10:24.462Z,56.00
2019-05-14T00:10:55.644Z,56.00
2019-05-14T00:11:26.843Z,56.00
2019-05-14T00:11:58.017Z,56.00
2019-05-14T00:12:31.375Z,56.00
2019-05-14T00:13:02.113Z,55.90
2019-05-14T00:13:33.283Z,55.90
2019-05-14T00:14:04.459Z,55.90
2019-05-14T00:14:39.631Z,55.90
2019-05-14T00:15:10.948Z,55.90
2019-05-14T00:15:41.559Z,55.90
2019-05-14T00:16:12.817Z,55.90
2019-05-14T00:16:44.040Z,55.90
2019-05-14T00:17:15.477Z,56.00
2019-05-14T00:17:46.658Z,56.00
2019-05-14T00:18:17.860Z,56.00
2019-05-14T00:18:51.051Z,56.00
2019-05-14T00:19:22.196Z,56.00
2019-05-14T00:20:06.226Z,55.90
2019-05-14T00:20:26.291Z,55.90
2019-05-14T00:20:57.462Z,55.90
2019-05-14T00:21:28.638Z,55.90
2019-05-14T00:22:01.934Z,55.90
2019-05-14T00:22:32.722Z,55.90
2019-05-14T00:23:03.918Z,55.90
2019-05-14T00:23:35.099Z,55.90
2019-05-14T00:24:06.274Z,55.90
2019-05-14T00:24:37.710Z,55.90
2019-05-14T00:25:08.887Z,55.90
2019-05-14T00:25:41.903Z,55.90
2019-05-14T00:26:13.230Z,55.90
2019-05-14T00:26:44.398Z,55.90
2019-05-14T00:27:15.926Z,55.90
2019-05-14T00:27:47.132Z,55.80
2019-05-14T00:28:18.298Z,55.90
2019-05-14T00:28:51.260Z,55.90
2019-05-14T00:29:22.555Z,55.90
2019-05-14T00:29:53.737Z,55.90
2019-05-14T00:30:24.907Z,56.00
2019-05-14T00:30:56.071Z,56.00
2019-05-14T00:31:27.247Z,56.00
2019-05-14T00:31:58.423Z,55.90
2019-05-14T00:32:31.665Z,55.90
2019-05-14T00:33:02.500Z,55.90
2019-05-14T00:33:33.940Z,55.90
2019-05-14T00:34:05.119Z,55.90
2019-05-14T00:34:36.335Z,55.90
2019-05-14T00:35:07.772Z,55.90
2019-05-14T00:35:41.211Z,56.00
2019-05-14T00:36:11.845Z,55.90
2019-05-14T00:36:43.281Z,55.90
2019-05-14T00:37:14.457Z,56.00
2019-05-14T00:37:45.634Z,56.00
2019-05-14T00:38:16.836Z,56.00
2019-05-14T00:38:48.013Z,56.00
2019-05-14T00:39:21.226Z,56.00
2019-05-14T00:39:52.352Z,56.00
2019-05-14T00:40:23.525Z,56.10
2019-05-14T00:40:54.700Z,56.10
2019-05-14T00:41:25.893Z,56.10
2019-05-14T00:41:57.069Z,56.10
2019-05-14T00:42:28.247Z,56.20
2019-05-14T00:42:59.450Z,56.20
2019-05-14T00:43:32.397Z,56.20
2019-05-14T00:44:04.004Z,56.30
2019-05-14T00:44:35.445Z,56.30
2019-05-14T00:45:06.634Z,56.90
2019-05-14T00:45:37.818Z,56.30
2019-05-14T00:46:08.991Z,56.20
2019-05-14T00:46:41.075Z,56.20
2019-05-14T00:47:12.423Z,56.20
2019-05-14T00:47:43.612Z,56.10
2019-05-14T00:48:14.783Z,56.00
2019-05-14T00:48:45.951Z,56.60
2019-05-14T00:49:17.176Z,55.90
2019-05-14T00:49:48.678Z,55.90
2019-05-14T00:50:21.607Z,55.90
2019-05-14T00:50:53.227Z,55.90
2019-05-14T00:51:24.685Z,55.90
2019-05-14T00:51:55.856Z,55.90
2019-05-14T00:52:27.291Z,55.90
2019-05-14T00:52:58.472Z,55.80
2019-05-14T00:53:31.937Z,55.80
2019-05-14T00:54:03.138Z,55.90
2019-05-14T00:54:34.608Z,55.90
2019-05-14T00:55:06.076Z,55.90
2019-05-14T00:55:37.537Z,55.90
2019-05-14T00:56:10.914Z,55.90
2019-05-14T00:56:41.905Z,55.90
2019-05-14T00:57:13.144Z,55.90
2019-05-14T00:57:44.317Z,55.90
2019-05-14T00:58:15.514Z,55.90
2019-05-14T00:58:46.693Z,55.90
2019-05-14T00:59:17.997Z,55.90
2019-05-14T00:59:49.177Z,55.90
2019-05-14T01:00:22.047Z,55.90
2019-05-14T01:00:53.436Z,56.00
2019-05-14T01:01:24.938Z,56.00
2019-05-14T01:01:56.105Z,55.90
2019-05-14T01:02:27.322Z,55.90
2019-05-14T01:02:58.758Z,55.90
2019-05-14T01:03:32.320Z,55.90
2019-05-14T01:04:03.133Z,55.80
2019-05-14T01:04:34.310Z,55.90
2019-05-14T01:05:05.490Z,55.90
2019-05-14T01:05:36.927Z,55.90
2019-05-14T01:06:08.110Z,55.90
2019-05-14T01:06:41.872Z,56.00
2019-05-14T01:07:12.236Z,55.80
2019-05-14T01:07:43.455Z,55.80
2019-05-14T01:08:14.620Z,55.80
2019-05-14T01:08:46.059Z,55.90
2019-05-14T01:09:17.256Z,55.90
2019-05-14T01:09:48.495Z,55.90
2019-05-14T01:10:21.988Z,55.90
2019-05-14T01:10:52.560Z,55.90
2019-05-14T01:11:23.767Z,55.90
2019-05-14T01:11:54.933Z,56.50
2019-05-14T01:12:26.143Z,55.90
2019-05-14T01:12:57.319Z,55.90
2019-05-14T01:13:28.500Z,55.80
2019-05-14T01:14:01.616Z,55.90
2019-05-14T01:14:32.589Z,55.90
2019-05-14T01:15:10.608Z,56.00
2019-05-14T01:15:36.965Z,56.10
2019-05-14T01:16:08.135Z,56.10
2019-05-14T01:16:39.333Z,56.10
2019-05-14T01:17:11.278Z,56.20
2019-05-14T01:17:42.686Z,56.20
2019-05-14T01:18:14.116Z,56.30
2019-05-14T01:18:45.554Z,56.20
2019-05-14T01:19:16.725Z,56.20
2019-05-14T01:19:47.921Z,56.20
2019-05-14T01:20:21.158Z,56.20
2019-05-14T01:20:52.161Z,56.20
2019-05-14T01:21:23.357Z,56.20
2019-05-14T01:21:54.841Z,56.20
2019-05-14T01:22:26.014Z,56.10
2019-05-14T01:22:57.194Z,56.00
2019-05-14T01:23:28.378Z,55.90
2019-05-14T01:24:01.848Z,55.90
2019-05-14T01:24:32.483Z,55.90
2019-05-14T01:25:03.654Z,55.90
2019-05-14T01:25:35.102Z,55.80
2019-05-14T01:26:06.351Z,55.80
2019-05-14T01:26:37.522Z,55.80
2019-05-14T01:27:08.699Z,55.90
2019-05-14T01:27:41.456Z,55.80
2019-05-14T01:28:12.755Z,55.80
2019-05-14T01:28:44.227Z,55.80
2019-05-14T01:29:15.409Z,55.80
2019-05-14T01:29:46.609Z,55.80
2019-05-14T01:30:17.832Z,55.70
2019-05-14T01:30:49.014Z,55.70
2019-05-14T01:31:21.949Z,55.70
2019-05-14T01:31:53.244Z,55.70
2019-05-14T01:32:24.420Z,55.70
2019-05-14T01:32:55.600Z,55.70
2019-05-14T01:33:27.044Z,55.80
2019-05-14T01:33:58.220Z,55.70
2019-05-14T01:34:29.400Z,55.80
2019-05-14T01:35:01.372Z,55.80
2019-05-14T01:35:32.669Z,55.80
2019-05-14T01:36:03.845Z,55.90
2019-05-14T01:36:35.064Z,55.90
2019-05-14T01:37:06.293Z,55.90
2019-05-14T01:37:37.524Z,55.90
2019-05-14T01:38:08.795Z,56.00
2019-05-14T01:38:41.898Z,56.00
2019-05-14T01:39:13.201Z,56.00
2019-05-14T01:39:44.656Z,55.90
2019-05-14T01:40:15.910Z,56.00
2019-05-14T01:40:47.106Z,56.00
2019-05-14T01:41:18.332Z,56.00
2019-05-14T01:41:51.688Z,56.00
2019-05-14T01:42:22.751Z,55.90
2019-05-14T01:42:54.015Z,56.00
2019-05-14T01:43:25.279Z,56.00
2019-05-14T01:43:56.816Z,55.90
2019-05-14T01:44:27.997Z,55.90
2019-05-14T01:44:59.472Z,55.90
2019-05-14T01:45:31.685Z,55.80
2019-05-14T01:46:03.219Z,55.80
2019-05-14T01:46:34.461Z,55.80
2019-05-14T01:47:05.679Z,55.90
2019-05-14T01:47:36.867Z,55.80
2019-05-14T01:48:08.042Z,55.80
2019-05-14T01:48:41.608Z,55.80
2019-05-14T01:49:12.385Z,55.90
2019-05-14T01:49:43.620Z,55.80
2019-05-14T01:50:14.881Z,55.90
2019-05-14T01:50:46.068Z,55.80
2019-05-14T01:51:17.623Z,55.90
2019-05-14T01:51:51.042Z,55.90
2019-05-14T01:52:21.940Z,55.80
2019-05-14T01:52:53.231Z,55.90
2019-05-14T01:53:24.408Z,56.00
2019-05-14T01:53:55.602Z,56.00
2019-05-14T01:54:27.045Z,56.00
2019-05-14T01:54:58.215Z,56.10
2019-05-14T01:55:29.663Z,56.10
2019-05-14T01:56:01.684Z,56.10
2019-05-14T01:56:33.354Z,56.10
2019-05-14T01:57:04.901Z,55.90
2019-05-14T01:57:36.370Z,55.90
2019-05-14T01:58:07.619Z,55.80
2019-05-14T01:58:38.797Z,55.80
2019-05-14T01:59:11.927Z,55.70
2019-05-14T01:59:43.099Z,55.80
2019-05-14T02:00:14.280Z,55.70
2019-05-14T02:00:45.450Z,55.80
2019-05-14T02:01:16.660Z,55.80
2019-05-14T02:01:47.882Z,55.80
2019-05-14T02:02:19.158Z,55.80
2019-05-14T02:02:52.411Z,55.90
2019-05-14T02:03:23.342Z,55.90
2019-05-14T02:03:54.568Z,55.90
2019-05-14T02:04:25.827Z,55.80
2019-05-14T02:04:57.007Z,55.70
2019-05-14T02:05:28.375Z,55.70
2019-05-14T02:06:01.436Z,55.70
2019-05-14T02:06:32.882Z,55.60
2019-05-14T02:07:04.099Z,55.60
2019-05-14T02:07:35.356Z,55.60
2019-05-14T02:08:06.585Z,55.60
2019-05-14T02:08:38.097Z,55.60
2019-05-14T02:09:11.189Z,55.60
2019-05-14T02:09:42.238Z,55.60
2019-05-14T02:10:13.461Z,55.60
2019-05-14T02:10:44.668Z,55.60
2019-05-14T02:11:15.941Z,55.60
2019-05-14T02:11:47.495Z,55.60
2019-05-14T02:12:18.966Z,55.60
2019-05-14T02:12:51.498Z,55.60
2019-05-14T02:13:23.030Z,55.70
2019-05-14T02:13:54.263Z,55.70
2019-05-14T02:14:25.533Z,55.70
2019-05-14T02:14:56.767Z,56.30
2019-05-14T02:15:37.153Z,55.70
2019-05-14T02:16:01.601Z,55.70
2019-05-14T02:16:33.245Z,55.70
2019-05-14T02:17:04.574Z,55.70
2019-05-14T02:17:35.785Z,55.80
2019-05-14T02:18:07.371Z,55.80
2019-05-14T02:18:38.630Z,55.80
2019-05-14T02:19:11.575Z,55.80
2019-05-14T02:19:42.991Z,55.90
2019-05-14T02:20:14.241Z,55.90
2019-05-14T02:20:45.432Z,55.90
2019-05-14T02:21:16.602Z,55.90
2019-05-14T02:21:47.810Z,55.90
2019-05-14T02:22:21.461Z,55.80
2019-05-14T02:22:52.559Z,55.80
2019-05-14T02:23:23.778Z,55.80
2019-05-14T02:23:55.010Z,55.80
2019-05-14T02:24:26.186Z,55.80
2019-05-14T02:24:57.355Z,55.80
2019-05-14T02:25:28.523Z,55.80
2019-05-14T02:25:59.731Z,55.80
2019-05-14T02:26:31.543Z,55.80
2019-05-14T02:27:03.060Z,55.80
2019-05-14T02:27:35.102Z,55.80
2019-05-14T02:28:06.311Z,55.80
2019-05-14T02:28:37.480Z,55.70
2019-05-14T02:29:08.721Z,55.70
2019-05-14T02:29:41.681Z,55.70
2019-05-14T02:30:13.067Z,55.70
2019-05-14T02:30:51.860Z,55.70
2019-05-14T02:31:20.265Z,55.70
2019-05-14T02:31:50.564Z,55.70
2019-05-14T02:32:21.919Z,55.80
2019-05-14T02:32:53.102Z,55.90
2019-05-14T02:33:24.296Z,55.90
2019-05-14T02:33:58.960Z,56.00
2019-05-14T02:34:29.975Z,55.90
2019-05-14T02:35:01.326Z,55.90
2019-05-14T02:35:32.582Z,55.90
2019-05-14T02:36:04.006Z,56.00
2019-05-14T02:36:35.193Z,55.90
2019-05-14T02:37:09.255Z,55.80
2019-05-14T02:37:40.063Z,55.70
2019-05-14T02:38:11.637Z,55.70
2019-05-14T02:38:42.839Z,55.60
2019-05-14T02:39:14.012Z,55.60
2019-05-14T02:39:45.182Z,55.60
2019-05-14T02:40:16.363Z,55.60
2019-05-14T02:40:49.495Z,55.60
2019-05-14T02:41:20.476Z,55.60
2019-05-14T02:41:51.691Z,55.60
2019-05-14T02:42:22.922Z,55.60
2019-05-14T02:42:54.091Z,55.60
2019-05-14T02:43:25.380Z,55.60
2019-05-14T02:43:59.435Z,55.60
2019-05-14T02:44:30.008Z,55.60
2019-05-14T02:45:01.657Z,55.60
2019-05-14T02:45:32.843Z,55.60
2019-05-14T02:46:11.843Z,55.60
2019-05-14T02:46:40.020Z,55.60
2019-05-14T02:47:10.323Z,55.60
2019-05-14T02:47:41.633Z,55.60
2019-05-14T02:48:12.814Z,55.60
2019-05-14T02:48:43.984Z,55.60
2019-05-14T02:49:15.164Z,55.50
2019-05-14T02:49:49.797Z,55.60
2019-05-14T02:50:20.180Z,55.60
2019-05-14T02:50:51.910Z,55.60
2019-05-14T02:51:23.144Z,55.60
2019-05-14T02:51:54.344Z,55.60
2019-05-14T02:52:25.517Z,55.60
2019-05-14T02:52:59.624Z,55.60
2019-05-14T02:53:30.071Z,55.60
2019-05-14T02:54:01.623Z,55.60
2019-05-14T02:54:32.797Z,55.60
2019-05-14T02:55:03.974Z,55.60
2019-05-14T02:55:35.150Z,55.60
2019-05-14T02:56:10.056Z,55.60
2019-05-14T02:56:40.237Z,55.60
2019-05-14T02:57:11.786Z,55.60
2019-05-14T02:57:42.960Z,55.60
2019-05-14T02:58:14.165Z,55.60
2019-05-14T02:58:45.352Z,55.60
2019-05-14T02:59:19.463Z,55.60
2019-05-14T02:59:50.451Z,55.60
2019-05-14T03:00:21.719Z,55.60
2019-05-14T03:00:52.891Z,55.60
2019-05-14T03:01:24.094Z,55.60
2019-05-14T03:01:55.299Z,55.60
2019-05-14T03:02:29.469Z,55.60
2019-05-14T03:03:00.088Z,55.60
2019-05-14T03:03:31.367Z,55.60
2019-05-14T03:04:02.555Z,55.60
2019-05-14T03:04:33.720Z,55.60
2019-05-14T03:05:04.946Z,55.60
2019-05-14T03:05:36.172Z,55.60
2019-05-14T03:06:09.501Z,55.60
2019-05-14T03:06:40.300Z,55.60
2019-05-14T03:07:11.525Z,55.60
2019-05-14T03:07:42.705Z,55.60
2019-05-14T03:08:13.876Z,55.60
2019-05-14T03:08:45.062Z,55.50
2019-05-14T03:09:16.266Z,55.50
2019-05-14T03:09:50.219Z,55.50
2019-05-14T03:10:20.337Z,55.50
2019-05-14T03:10:51.526Z,55.60
2019-05-14T03:11:22.689Z,55.60
2019-05-14T03:11:53.864Z,55.70
2019-05-14T03:12:25.046Z,55.70
2019-05-14T03:12:58.891Z,55.70
2019-05-14T03:13:29.694Z,55.70
2019-05-14T03:14:01.190Z,55.70
2019-05-14T03:14:32.359Z,55.70
2019-05-14T03:15:03.533Z,55.70
2019-05-14T03:15:34.706Z,55.70
2019-05-14T03:16:22.521Z,55.70
2019-05-14T03:16:40.433Z,55.70
2019-05-14T03:17:11.670Z,55.60
2019-05-14T03:17:42.858Z,55.70
2019-05-14T03:18:14.079Z,55.70
2019-05-14T03:18:45.267Z,55.70
2019-05-14T03:19:19.599Z,55.70
2019-05-14T03:19:49.891Z,55.70
2019-05-14T03:20:21.352Z,55.80
2019-05-14T03:20:52.534Z,55.70
2019-05-14T03:21:23.702Z,55.70
2019-05-14T03:21:54.878Z,55.60
2019-05-14T03:22:39.460Z,55.60
2019-05-14T03:23:08.021Z,55.50
2019-05-14T03:23:31.987Z,55.50
2019-05-14T03:24:03.189Z,55.40
2019-05-14T03:24:34.411Z,55.30
2019-05-14T03:25:05.596Z,55.30
2019-05-14T03:25:39.778Z,55.30
2019-05-14T03:26:09.842Z,55.20
2019-05-14T03:26:41.060Z,55.20
2019-05-14T03:27:12.265Z,55.20
2019-05-14T03:27:43.753Z,55.20
2019-05-14T03:28:14.921Z,55.30
2019-05-14T03:28:49.278Z,55.30
2019-05-14T03:29:19.654Z,55.30
2019-05-14T03:29:51.080Z,55.30
2019-05-14T03:30:23.448Z,55.30
2019-05-14T03:30:54.917Z,55.40
2019-05-14T03:31:32.298Z,55.40
2019-05-14T03:32:03.281Z,55.40
2019-05-14T03:32:33.238Z,55.50
2019-05-14T03:33:04.738Z,55.50
2019-05-14T03:33:35.910Z,55.50
2019-05-14T03:34:12.662Z,55.50
2019-05-14T03:34:42.983Z,55.60
2019-05-14T03:35:14.528Z,55.60
2019-05-14T03:35:56.060Z,55.60
2019-05-14T03:36:25.720Z,55.60
2019-05-14T03:36:53.377Z,55.60
2019-05-14T03:37:24.897Z,55.60
2019-05-14T03:37:56.181Z,55.60
2019-05-14T03:38:29.645Z,55.60
2019-05-14T03:39:00.362Z,55.60
2019-05-14T03:39:31.587Z,55.60
2019-05-14T03:40:02.774Z,55.60
2019-05-14T03:40:33.959Z,55.60
2019-05-14T03:41:05.164Z,55.60
2019-05-14T03:41:39.382Z,55.60
2019-05-14T03:42:09.733Z,55.60
2019-05-14T03:42:41.099Z,56.20
2019-05-14T03:43:12.355Z,55.60
2019-05-14T03:43:43.535Z,55.50
2019-05-14T03:44:14.709Z,55.50
2019-05-14T03:44:48.799Z,55.50
2019-05-14T03:45:19.504Z,55.50
2019-05-14T03:45:50.871Z,55.50
2019-05-14T03:46:39.836Z,55.50
2019-05-14T03:46:57.081Z,55.50
2019-05-14T03:47:29.882Z,55.50
2019-05-14T03:48:00.894Z,55.50
2019-05-14T03:48:32.064Z,55.50
2019-05-14T03:49:03.274Z,55.50
2019-05-14T03:49:34.443Z,55.40
2019-05-14T03:50:05.614Z,55.50
2019-05-14T03:50:38.927Z,55.50
2019-05-14T03:51:09.713Z,55.50
2019-05-14T03:51:40.886Z,55.60
2019-05-14T03:52:12.099Z,55.60
2019-05-14T03:52:43.279Z,55.60
2019-05-14T03:53:14.453Z,55.60
2019-05-14T03:54:00.675Z,55.60
2019-05-14T03:54:19.521Z,55.60
2019-05-14T03:54:50.923Z,55.60
2019-05-14T03:55:22.104Z,55.60
2019-05-14T03:55:53.364Z,55.60
2019-05-14T03:56:24.546Z,55.60
2019-05-14T03:56:56.015Z,55.60
2019-05-14T03:57:29.229Z,55.60
2019-05-14T03:58:00.187Z,55.60
2019-05-14T03:58:31.388Z,55.50
2019-05-14T03:59:02.965Z,55.50
2019-05-14T03:59:34.316Z,55.50
2019-05-14T04:00:05.575Z,55.40
2019-05-14T04:00:38.980Z,55.40
2019-05-14T04:01:09.867Z,55.30
2019-05-14T04:01:41.349Z,55.30
2019-05-14T04:02:12.901Z,55.30
2019-05-14T04:02:44.072Z,55.30
2019-05-14T04:03:15.274Z,55.30
2019-05-14T04:03:46.502Z,55.30
2019-05-14T04:04:19.431Z,55.30
2019-05-14T04:04:50.770Z,55.30
2019-05-14T04:05:22.894Z,55.30
2019-05-14T04:05:54.449Z,55.20
2019-05-14T04:06:25.625Z,55.20
2019-05-14T04:06:59.714Z,55.80
2019-05-14T04:07:30.553Z,55.10
2019-05-14T04:08:01.856Z,55.10
2019-05-14T04:08:33.035Z,55.20
2019-05-14T04:09:04.589Z,55.30
2019-05-14T04:09:36.103Z,55.40
2019-05-14T04:10:10.305Z,55.40
2019-05-14T04:10:48.740Z,55.40
2019-05-14T04:11:13.154Z,55.40
2019-05-14T04:11:44.330Z,55.60
2019-05-14T04:12:18.940Z,55.40
2019-05-14T04:12:49.361Z,55.40
2019-05-14T04:13:20.635Z,55.40
2019-05-14T04:13:52.066Z,55.40
2019-05-14T04:14:23.246Z,55.40
2019-05-14T04:14:54.443Z,55.40
2019-05-14T04:15:25.619Z,55.40
2019-05-14T04:15:59.935Z,55.40
2019-05-14T04:16:29.715Z,55.40
2019-05-14T04:17:09.111Z,55.40
2019-05-14T04:17:38.874Z,55.40
2019-05-14T04:18:09.047Z,55.50
2019-05-14T04:18:40.735Z,55.40
2019-05-14T04:19:12.057Z,55.40
2019-05-14T04:19:43.228Z,55.40
2019-05-14T04:20:14.665Z,55.40
2019-05-14T04:20:45.839Z,55.40
2019-05-14T04:21:20.220Z,55.40
2019-05-14T04:21:49.904Z,55.30
2019-05-14T04:22:21.384Z,55.40
2019-05-14T04:22:52.644Z,55.40
2019-05-14T04:23:24.075Z,55.40
2019-05-14T04:23:55.252Z,55.40
2019-05-14T04:24:29.253Z,55.40
2019-05-14T04:24:59.936Z,55.40
2019-05-14T04:25:31.197Z,55.40
2019-05-14T04:26:02.433Z,55.40
2019-05-14T04:26:53.332Z,55.40
2019-05-14T04:27:12.255Z,55.40
2019-05-14T04:27:40.195Z,55.40
2019-05-14T04:28:11.625Z,55.40
2019-05-14T04:28:42.805Z,55.40
2019-05-14T04:29:13.982Z,55.40
2019-05-14T04:29:45.230Z,55.40
2019-05-14T04:30:20.575Z,55.40
2019-05-14T04:30:49.549Z,55.50
2019-05-14T04:31:20.765Z,55.50
2019-05-14T04:31:52.213Z,55.50
2019-05-14T04:32:23.746Z,55.50
2019-05-14T04:32:54.989Z,55.60
2019-05-14T04:33:29.925Z,55.60
2019-05-14T04:33:59.399Z,55.60
2019-05-14T04:34:30.649Z,55.60
2019-05-14T04:35:01.926Z,55.60
2019-05-14T04:35:33.101Z,55.60
2019-05-14T04:36:04.306Z,55.50
2019-05-14T04:36:35.514Z,55.50
2019-05-14T04:37:09.468Z,55.40
2019-05-14T04:37:40.103Z,55.40
2019-05-14T04:38:11.439Z,55.40
2019-05-14T04:38:42.638Z,55.40
2019-05-14T04:39:14.151Z,55.30
2019-05-14T04:39:45.324Z,55.30
2019-05-14T04:40:18.936Z,55.30
2019-05-14T04:40:49.650Z,55.30
2019-05-14T04:41:20.853Z,55.30
2019-05-14T04:41:52.103Z,55.20
2019-05-14T04:42:23.273Z,55.20
2019-05-14T04:42:54.717Z,55.20
2019-05-14T04:43:25.885Z,55.20
2019-05-14T04:43:59.472Z,55.20
2019-05-14T04:44:30.141Z,55.10
2019-05-14T04:45:05.489Z,55.10
2019-05-14T04:45:34.376Z,55.10
2019-05-14T04:46:05.649Z,55.10
2019-05-14T04:46:39.528Z,55.10
2019-05-14T04:47:27.359Z,55.10
2019-05-14T04:47:43.174Z,55.10
2019-05-14T04:48:29.001Z,55.20
2019-05-14T04:48:50.347Z,55.20
2019-05-14T04:49:20.166Z,55.30
2019-05-14T04:49:51.405Z,55.20
2019-05-14T04:50:25.517Z,55.30
2019-05-14T04:50:55.536Z,55.30
2019-05-14T04:51:29.979Z,55.30
2019-05-14T04:51:59.971Z,55.40
2019-05-14T04:52:31.474Z,55.30
2019-05-14T04:53:02.669Z,55.30
2019-05-14T04:53:33.918Z,55.30
2019-05-14T04:54:05.134Z,55.30
2019-05-14T04:54:39.266Z,55.40
2019-05-14T04:55:10.013Z,55.30
2019-05-14T04:55:41.436Z,55.30
2019-05-14T04:56:12.690Z,55.20
2019-05-14T04:56:43.854Z,55.30
2019-05-14T04:57:15.019Z,55.20
2019-05-14T04:57:46.191Z,55.20
2019-05-14T04:58:21.275Z,55.20
2019-05-14T04:58:50.576Z,55.30
2019-05-14T04:59:21.854Z,55.30
2019-05-14T04:59:53.051Z,55.20
2019-05-14T05:00:24.253Z,55.20
2019-05-14T05:00:55.428Z,55.20
2019-05-14T05:01:29.489Z,55.20
2019-05-14T05:02:00.276Z,55.20
2019-05-14T05:02:31.608Z,55.20
2019-05-14T05:03:02.804Z,55.20
2019-05-14T05:03:33.981Z,55.20
2019-05-14T05:04:05.229Z,55.30
2019-05-14T05:04:40.553Z,55.30
2019-05-14T05:05:09.451Z,55.30
2019-05-14T05:05:40.665Z,55.30
2019-05-14T05:06:11.846Z,55.20
2019-05-14T05:06:43.021Z,55.20
2019-05-14T05:07:14.208Z,55.20
2019-05-14T05:07:45.401Z,55.30
2019-05-14T05:08:19.652Z,55.30
2019-05-14T05:08:50.154Z,55.30
2019-05-14T05:09:21.521Z,55.30
2019-05-14T05:09:52.703Z,55.40
2019-05-14T05:10:23.912Z,55.40
2019-05-14T05:10:55.105Z,55.40
2019-05-14T05:11:29.049Z,55.40
2019-05-14T05:11:59.903Z,55.40
2019-05-14T05:12:31.591Z,55.40
2019-05-14T05:13:02.762Z,55.40
2019-05-14T05:13:34.223Z,55.50
2019-05-14T05:14:05.397Z,55.40
2019-05-14T05:14:38.875Z,55.50
2019-05-14T05:15:09.737Z,55.50
2019-05-14T05:15:41.041Z,55.50
2019-05-14T05:16:12.214Z,55.50
2019-05-14T05:16:43.391Z,56.20
2019-05-14T05:17:14.564Z,55.60
2019-05-14T05:17:51.748Z,55.60
2019-05-14T05:18:18.818Z,55.60
2019-05-14T05:18:50.060Z,55.60
2019-05-14T05:19:21.664Z,55.50
2019-05-14T05:19:53.104Z,55.50
2019-05-14T05:20:24.280Z,55.40
2019-05-14T05:20:55.468Z,55.40
2019-05-14T05:21:28.266Z,55.30
2019-05-14T05:21:59.572Z,55.20
2019-05-14T05:22:30.777Z,55.20
2019-05-14T05:23:01.972Z,55.20
2019-05-14T05:23:33.141Z,55.20
2019-05-14T05:24:04.341Z,55.10
2019-05-14T05:24:37.935Z,55.10
2019-05-14T05:25:08.771Z,55.10
2019-05-14T05:25:39.964Z,55.10
2019-05-14T05:26:11.154Z,55.10
2019-05-14T05:26:42.590Z,55.10
2019-05-14T05:27:13.761Z,55.10
2019-05-14T05:27:44.943Z,55.10
2019-05-14T05:28:16.151Z,55.10
2019-05-14T05:29:00.045Z,55.10
2019-05-14T05:29:20.481Z,55.10
2019-05-14T05:29:51.654Z,55.10
2019-05-14T05:30:22.841Z,55.10
2019-05-14T05:30:54.046Z,55.10
2019-05-14T05:31:25.242Z,55.10
2019-05-14T05:31:56.422Z,55.20
2019-05-14T05:32:28.550Z,55.20
2019-05-14T05:32:59.887Z,55.20
2019-05-14T05:33:31.174Z,55.20
2019-05-14T05:34:02.370Z,55.20
2019-05-14T05:34:33.566Z,55.10
2019-05-14T05:35:04.751Z,55.20
2019-05-14T05:35:38.438Z,55.20
2019-05-14T05:36:09.561Z,55.20
2019-05-14T05:36:40.863Z,55.20
2019-05-14T05:37:12.299Z,55.20
2019-05-14T05:37:43.483Z,55.20
2019-05-14T05:38:14.652Z,55.30
2019-05-14T05:38:48.732Z,55.20
2019-05-14T05:39:19.102Z,55.20
2019-05-14T05:39:50.295Z,55.20
2019-05-14T05:40:21.472Z,55.20
2019-05-14T05:40:52.657Z,55.20
2019-05-14T05:41:23.820Z,55.20
2019-05-14T05:41:55.030Z,55.20
2019-05-14T05:42:26.200Z,55.20
2019-05-14T05:42:58.215Z,55.30
2019-05-14T05:43:29.559Z,55.20
2019-05-14T05:44:00.748Z,55.20
2019-05-14T05:44:32.186Z,55.20
2019-05-14T05:45:03.364Z,55.20
2019-05-14T05:45:34.546Z,55.30
2019-05-14T05:46:05.745Z,55.30
2019-05-14T05:46:38.862Z,55.20
2019-05-14T05:47:09.827Z,55.30
2019-05-14T05:47:54.355Z,55.30
2019-05-14T05:48:13.949Z,55.30
2019-05-14T05:48:45.126Z,55.30
2019-05-14T05:49:18.523Z,55.30
2019-05-14T05:49:49.450Z,55.30
2019-05-14T05:50:20.641Z,55.40
2019-05-14T05:50:51.875Z,55.40
2019-05-14T05:51:23.112Z,55.40
2019-05-14T05:51:54.315Z,55.40
2019-05-14T05:52:28.029Z,55.40
2019-05-14T05:52:58.620Z,55.30
2019-05-14T05:53:32.704Z,55.30
2019-05-14T05:54:03.882Z,55.30
2019-05-14T05:54:35.059Z,55.30
2019-05-14T05:55:08.488Z,55.20
2019-05-14T05:55:39.538Z,55.30
2019-05-14T05:56:10.803Z,55.20
2019-05-14T05:56:41.967Z,55.20
2019-05-14T05:57:13.460Z,55.30
2019-05-14T05:57:44.892Z,55.30
2019-05-14T05:58:16.063Z,55.30
2019-05-14T05:58:48.806Z,55.30
2019-05-14T05:59:20.389Z,55.40
2019-05-14T05:59:51.645Z,55.30
2019-05-14T06:00:22.824Z,55.30
2019-05-14T06:00:53.995Z,55.30
2019-05-14T06:01:39.394Z,55.30
2019-05-14T06:01:58.617Z,55.20
2019-05-14T06:02:30.077Z,55.20
2019-05-14T06:03:01.311Z,55.20
2019-05-14T06:03:32.544Z,55.20
2019-05-14T06:04:04.034Z,55.20
2019-05-14T06:04:35.212Z,55.20
2019-05-14T06:05:08.119Z,55.20
2019-05-14T06:05:39.446Z,55.20
2019-05-14T06:06:13.357Z,55.20
2019-05-14T06:06:43.781Z,55.30
2019-05-14T06:07:14.971Z,55.30
2019-05-14T06:07:48.200Z,55.20
2019-05-14T06:08:19.073Z,55.30
2019-05-14T06:08:50.242Z,55.30
2019-05-14T06:09:21.446Z,55.20
2019-05-14T06:09:52.627Z,55.20
2019-05-14T06:10:23.801Z,55.30
2019-05-14T06:10:54.982Z,55.20
2019-05-14T06:11:26.151Z,55.30
2019-05-14T06:11:59.242Z,55.20
2019-05-14T06:12:30.229Z,55.20
2019-05-14T06:13:01.438Z,55.20
2019-05-14T06:13:32.621Z,55.20
2019-05-14T06:14:03.807Z,55.20
2019-05-14T06:14:34.978Z,55.20
2019-05-14T06:15:08.507Z,55.20
2019-05-14T06:15:45.700Z,55.30
2019-05-14T06:16:12.508Z,55.30
2019-05-14T06:16:43.675Z,55.30
2019-05-14T06:17:15.109Z,55.20
2019-05-14T06:17:46.283Z,55.20
2019-05-14T06:18:21.710Z,55.20
2019-05-14T06:18:50.380Z,55.30
2019-05-14T06:19:21.744Z,55.20
2019-05-14T06:19:52.920Z,55.30
2019-05-14T06:20:24.393Z,55.20
2019-05-14T06:20:55.573Z,55.30
2019-05-14T06:21:28.996Z,55.30
2019-05-14T06:21:59.904Z,55.30
2019-05-14T06:22:31.470Z,55.30
2019-05-14T06:23:02.905Z,55.30
2019-05-14T06:23:34.098Z,55.30
2019-05-14T06:24:05.274Z,55.30
2019-05-14T06:24:38.768Z,55.30
2019-05-14T06:25:11.300Z,55.30
2019-05-14T06:25:42.558Z,55.30
2019-05-14T06:26:13.722Z,55.30
2019-05-14T06:26:44.898Z,55.30
2019-05-14T06:27:18.003Z,55.30
2019-05-14T06:27:48.985Z,55.30
2019-05-14T06:28:20.981Z,55.30
2019-05-14T06:28:52.438Z,55.30
2019-05-14T06:29:23.630Z,55.30
2019-05-14T06:29:54.809Z,55.40
2019-05-14T06:30:28.045Z,55.40
2019-05-14T06:30:59.218Z,55.40
2019-05-14T06:31:30.425Z,55.40
2019-05-14T06:32:01.631Z,55.40
2019-05-14T06:32:32.808Z,55.40
2019-05-14T06:33:03.977Z,55.40
2019-05-14T06:33:35.425Z,55.40
2019-05-14T06:34:09.384Z,55.40
2019-05-14T06:34:39.787Z,55.40
2019-05-14T06:35:10.955Z,55.40
2019-05-14T06:35:42.139Z,55.40
2019-05-14T06:36:14.642Z,55.40
2019-05-14T06:36:48.357Z,55.40
2019-05-14T06:37:19.333Z,55.40
2019-05-14T06:37:50.584Z,55.30
2019-05-14T06:38:21.803Z,55.30
2019-05-14T06:38:52.979Z,55.30
2019-05-14T06:39:24.149Z,55.20
2019-05-14T06:39:55.320Z,55.30
2019-05-14T06:40:28.652Z,55.20
2019-05-14T06:40:59.596Z,55.30
2019-05-14T06:41:30.812Z,55.30
2019-05-14T06:42:02.019Z,55.30
2019-05-14T06:42:33.213Z,55.30
2019-05-14T06:43:04.444Z,55.30
2019-05-14T06:43:35.626Z,55.30
2019-05-14T06:44:09.030Z,55.30
2019-05-14T06:44:39.693Z,55.30
2019-05-14T06:45:10.898Z,55.30
2019-05-14T06:45:42.148Z,55.30
2019-05-14T06:46:13.382Z,55.30
2019-05-14T06:46:44.565Z,55.30
2019-05-14T06:47:15.734Z,55.30